createdAt,value
2022-10-19T00:04:00.600Z,0.0
2022-10-19T00:06:22.987Z,0.0
2022-10-19T00:09:03.602Z,0.0
2022-10-19T00:11:34.191Z,0.0
2022-10-19T00:14:04.814Z,0.0
2022-10-19T00:16:35.393Z,0.0
2022-10-19T00:19:05.986Z,0.0
2022-10-19T00:21:56.726Z,0.0
2022-10-19T00:24:27.350Z,0.0
2022-10-19T00:26:57.952Z,0.0
2022-10-19T00:29:28.669Z,0.0
2022-10-19T00:31:59.259Z,0.0
2022-10-19T00:34:29.864Z,0.0
2022-10-19T00:37:10.469Z,0.0
2022-10-19T00:39:41.144Z,0.0
2022-10-19T00:44:41.837Z,0.0
2022-10-19T00:47:12.461Z,0.0
2022-10-19T00:49:43.061Z,0.0
2022-10-19T00:52:23.655Z,0.0
2022-10-19T00:54:54.254Z,0.0
2022-10-19T00:57:24.851Z,0.0
2022-10-19T00:59:55.443Z,0.0
2022-10-19T01:02:26.035Z,0.0
2022-10-19T01:04:56.619Z,0.0
2022-10-19T01:07:37.629Z,0.0
2022-10-19T01:10:08.338Z,0.0
2022-10-19T01:12:38.939Z,0.0
2022-10-19T01:15:09.538Z,0.0
2022-10-19T01:17:40.219Z,0.0
2022-10-19T01:20:10.793Z,0.0
2022-10-19T01:25:21.580Z,0.0
2022-10-19T01:27:52.637Z,0.0
2022-10-19T01:30:23.247Z,0.0
2022-10-19T01:32:53.825Z,0.0
2022-10-19T01:35:24.428Z,0.0
2022-10-19T01:38:05.042Z,0.2
2022-10-19T01:40:35.648Z,0.0
2022-10-19T01:43:06.353Z,0.0
2022-10-19T01:45:36.949Z,0.0
2022-10-19T01:48:07.548Z,0.0
2022-10-19T01:50:48.164Z,0.0
2022-10-19T01:53:18.734Z,0.0
2022-10-19T01:55:49.335Z,0.0
2022-10-19T01:58:20.026Z,0.0
2022-10-19T02:00:50.838Z,0.0
2022-10-19T02:06:01.694Z,0.0
2022-10-19T02:08:32.326Z,0.0
2022-10-19T02:11:02.931Z,0.0
2022-10-19T02:13:33.794Z,0.0
2022-10-19T02:16:04.365Z,0.0
2022-10-19T02:18:34.914Z,0.0
2022-10-19T02:21:15.513Z,0.0
2022-10-19T02:23:47.511Z,0.0
2022-10-19T02:26:19.893Z,0.0
2022-10-19T02:28:50.468Z,0.0
2022-10-19T02:31:21.064Z,0.0
2022-10-19T02:36:31.815Z,0.0
2022-10-19T02:39:02.950Z,0.0
2022-10-19T02:41:33.523Z,0.0
2022-10-19T02:46:34.303Z,0.0
2022-10-19T02:49:14.957Z,0.2
2022-10-19T02:51:45.536Z,0.0
2022-10-19T02:54:16.311Z,0.0
2022-10-19T02:56:46.872Z,0.0
2022-10-19T02:59:17.469Z,0.0
2022-10-19T03:01:48.138Z,0.0
2022-10-19T03:04:28.745Z,0.0
2022-10-19T03:06:59.317Z,0.0
2022-10-19T03:09:29.917Z,0.0
2022-10-19T03:12:00.517Z,0.0
2022-10-19T03:14:31.106Z,0.0
2022-10-19T03:17:01.689Z,0.8
2022-10-19T03:19:42.277Z,0.2
2022-10-19T03:22:12.875Z,0.0
2022-10-19T03:27:13.631Z,0.5
2022-10-19T03:29:44.231Z,1.9
2022-10-19T03:32:14.810Z,0.5
2022-10-19T03:35:05.406Z,0.0
2022-10-19T03:37:36.395Z,0.0
2022-10-19T03:40:07.096Z,0.0
2022-10-19T03:42:37.671Z,0.0
2022-10-19T03:45:08.260Z,0.0
2022-10-19T03:47:48.895Z,0.0
2022-10-19T03:50:19.477Z,0.5
2022-10-19T03:52:50.115Z,0.5
2022-10-19T03:55:20.743Z,0.5
2022-10-19T03:57:51.683Z,0.5
2022-10-19T04:00:22.272Z,0.8
2022-10-19T04:03:02.891Z,0.8
2022-10-19T04:08:03.610Z,0.2
2022-10-19T04:10:34.210Z,1.1
2022-10-19T04:13:04.814Z,1.3
2022-10-19T04:15:35.413Z,1.3
2022-10-19T04:18:16.000Z,0.0
2022-10-19T04:20:46.550Z,0.0
2022-10-19T04:25:47.843Z,0.0
2022-10-19T04:28:18.465Z,0.0
2022-10-19T04:30:49.067Z,0.0
2022-10-19T04:33:29.657Z,0.2
2022-10-19T04:36:00.254Z,0.0
2022-10-19T04:38:30.855Z,0.0
2022-10-19T04:41:01.393Z,0.0
2022-10-19T04:43:31.977Z,0.0
2022-10-19T04:48:42.741Z,0.0
2022-10-19T04:51:13.336Z,0.0
2022-10-19T04:53:44.949Z,0.0
2022-10-19T04:56:15.527Z,0.0
2022-10-19T04:58:46.126Z,0.0
2022-10-19T05:01:26.899Z,0.0
2022-10-19T05:06:28.122Z,0.0
2022-10-19T05:08:58.726Z,0.0
2022-10-19T05:11:29.315Z,0.0
2022-10-19T05:13:59.915Z,0.0
2022-10-19T05:16:40.530Z,0.0
2022-10-19T05:21:41.249Z,0.0
2022-10-19T05:24:11.862Z,0.0
2022-10-19T05:29:12.737Z,0.0
2022-10-19T05:31:53.355Z,0.0
2022-10-19T05:34:24.045Z,0.0
2022-10-19T05:36:54.635Z,0.0
2022-10-19T05:39:25.240Z,0.0
2022-10-19T05:41:55.806Z,0.0
2022-10-19T05:44:26.407Z,0.0
2022-10-19T05:47:07.035Z,0.0
2022-10-19T05:52:07.777Z,0.0
2022-10-19T05:54:39.003Z,0.0
2022-10-19T05:57:09.593Z,0.0
2022-10-19T05:59:50.204Z,0.0
2022-10-19T06:02:20.918Z,0.0
2022-10-19T06:04:51.541Z,0.0
2022-10-19T06:10:02.302Z,0.0
2022-10-19T06:12:35.324Z,0.0
2022-10-19T06:15:06.949Z,0.0
2022-10-19T06:17:37.531Z,0.0
2022-10-19T06:20:08.108Z,0.0
2022-10-19T06:22:38.689Z,0.0
2022-10-19T06:25:09.294Z,0.0
2022-10-19T06:27:40.050Z,0.0
2022-10-19T06:30:20.675Z,0.0
2022-10-19T06:32:51.385Z,0.0
2022-10-19T06:35:22.046Z,0.0
2022-10-19T06:37:53.191Z,0.0
2022-10-19T06:40:27.683Z,0.0
2022-10-19T06:42:58.319Z,0.0
2022-10-19T06:45:44.976Z,0.0
2022-10-19T06:50:35.708Z,0.0
2022-10-19T06:53:06.313Z,0.0
2022-10-19T06:55:36.904Z,0.0
2022-10-19T06:58:17.502Z,0.0
2022-10-19T07:00:48.211Z,0.2
2022-10-19T07:03:18.856Z,0.5
2022-10-19T07:05:59.447Z,0.5
2022-10-19T07:08:30.094Z,0.2
2022-10-19T07:11:00.727Z,0.2
2022-10-19T07:13:41.368Z,1.1
2022-10-19T07:16:14.582Z,1.9
2022-10-19T07:18:38.394Z,0.0
2022-10-19T07:21:08.957Z,0.0
2022-10-19T07:23:39.566Z,0.0
2022-10-19T07:26:10.167Z,0.0
2022-10-19T07:31:20.906Z,0.0
2022-10-19T07:33:51.483Z,0.0
2022-10-19T07:36:22.085Z,0.0
2022-10-19T07:38:52.679Z,0.0
2022-10-19T07:41:23.262Z,1.3
2022-10-19T07:44:03.865Z,0.2
2022-10-19T07:46:34.448Z,0.2
2022-10-19T07:49:05.080Z,0.2
2022-10-19T07:51:35.780Z,0.0
2022-10-19T07:54:06.367Z,0.5
2022-10-19T07:56:36.941Z,1.3
2022-10-19T07:59:17.554Z,1.3
2022-10-19T08:01:48.291Z,1.6
2022-10-19T08:06:49.044Z,1.1
2022-10-19T08:11:59.828Z,1.1
2022-10-19T08:14:40.440Z,1.6
2022-10-19T08:17:11.035Z,1.1
2022-10-19T08:19:41.618Z,0.5
2022-10-19T08:22:12.199Z,0.8
2022-10-19T08:24:42.812Z,1.3
2022-10-19T08:27:23.453Z,0.8
2022-10-19T08:29:54.460Z,0.5
2022-10-19T08:32:25.021Z,0.2
2022-10-19T08:34:55.603Z,0.0
2022-10-19T08:37:54.549Z,0.0
2022-10-19T08:39:55.349Z,1.1
2022-10-19T08:42:36.182Z,1.3
2022-10-19T08:45:06.989Z,2.2
2022-10-19T08:47:41.479Z,0.5
2022-10-19T08:52:44.919Z,1.3
2022-10-19T08:55:05.519Z,1.3
2022-10-19T08:57:46.617Z,1.3
2022-10-19T09:00:17.249Z,3.3
2022-10-19T09:02:47.863Z,1.6
2022-10-19T09:05:18.459Z,1.3
2022-10-19T09:07:49.047Z,1.1
2022-10-19T09:10:19.665Z,0.5
2022-10-19T09:13:05.136Z,1.1
2022-10-19T09:15:35.751Z,2.5
2022-10-19T09:18:06.342Z,1.1
2022-10-19T09:20:36.919Z,1.1
2022-10-19T09:23:11.103Z,1.3
2022-10-19T09:25:43.627Z,1.3
2022-10-19T09:28:14.292Z,0.5
2022-10-19T09:33:15.648Z,5.5
2022-10-19T09:35:46.293Z,0.8
2022-10-19T09:38:16.938Z,2.2
2022-10-19T09:40:57.546Z,1.3
2022-10-19T09:43:28.143Z,1.9
2022-10-19T09:45:58.711Z,1.6
2022-10-19T09:48:39.333Z,2.2
2022-10-19T09:51:09.923Z,1.9
2022-10-19T09:53:40.517Z,1.3
2022-10-19T09:56:21.107Z,1.6
2022-10-19T09:58:53.643Z,2.2
2022-10-19T10:01:14.254Z,1.9
2022-10-19T10:03:44.862Z,2.2
2022-10-19T10:06:15.441Z,2.7
2022-10-19T10:08:46.439Z,1.9
2022-10-19T10:13:57.200Z,0.8
2022-10-19T10:16:27.781Z,9.7
2022-10-19T10:19:08.367Z,0.8
2022-10-19T10:21:43.233Z,0.2
2022-10-19T10:24:13.894Z,0.8
2022-10-19T10:26:44.541Z,1.9
2022-10-19T10:29:19.601Z,2.2
2022-10-19T10:31:50.156Z,2.7
2022-10-19T10:34:49.727Z,3.3
2022-10-19T10:36:51.126Z,3.6
2022-10-19T10:39:31.769Z,3.3
2022-10-19T10:42:02.385Z,3.8
2022-10-19T10:44:32.967Z,3.0
2022-10-19T10:47:03.627Z,2.7
2022-10-19T10:54:44.541Z,3.6
2022-10-19T10:57:17.145Z,11.9
2022-10-19T10:59:51.708Z,5.2
2022-10-19T11:02:12.631Z,5.8
2022-10-19T11:04:43.724Z,4.7
2022-10-19T11:07:15.349Z,5.2
2022-10-19T11:09:55.965Z,4.1
2022-10-19T11:12:26.586Z,5.0
2022-10-19T11:14:57.198Z,4.7
2022-10-19T11:17:27.787Z,3.8
2022-10-19T11:19:58.364Z,2.5
2022-10-19T11:22:32.811Z,3.8
2022-10-19T11:25:13.597Z,5.8
2022-10-19T11:27:44.677Z,4.1
2022-10-19T11:30:15.291Z,3.3
2022-10-19T11:35:16.023Z,3.3
2022-10-19T11:38:30.298Z,3.0
2022-10-19T11:40:32.532Z,3.6
2022-10-19T11:43:03.196Z,3.3
2022-10-19T11:45:33.792Z,1.6
2022-10-19T11:48:04.391Z,2.7
2022-10-19T11:50:38.491Z,3.8
2022-10-19T11:53:09.074Z,3.3
2022-10-19T11:55:39.673Z,4.4
2022-10-19T11:58:10.238Z,2.7
2022-10-19T12:00:58.635Z,3.0
2022-10-19T12:03:23.849Z,2.5
2022-10-19T12:05:44.460Z,4.4
2022-10-19T12:08:25.284Z,4.4
2022-10-19T12:10:55.899Z,3.3
2022-10-19T12:15:56.660Z,1.1
2022-10-19T12:18:27.258Z,1.6
2022-10-19T12:20:57.841Z,2.2
2022-10-19T12:23:38.443Z,2.7
2022-10-19T12:26:09.110Z,3.8
2022-10-19T12:28:39.743Z,3.8
2022-10-19T12:31:10.294Z,3.8
2022-10-19T12:33:40.884Z,2.7
2022-10-19T12:36:21.467Z,3.8
2022-10-19T12:38:59.988Z,3.0
2022-10-19T12:41:30.703Z,3.0
2022-10-19T12:44:01.260Z,3.3
2022-10-19T12:46:31.845Z,3.6
2022-10-19T12:49:02.452Z,2.5
2022-10-19T12:51:43.064Z,1.6
2022-10-19T12:56:43.819Z,2.5
2022-10-19T12:59:14.422Z,2.5
2022-10-19T13:01:45.017Z,2.5
2022-10-19T13:04:15.632Z,1.3
2022-10-19T13:06:56.222Z,2.7
2022-10-19T13:09:26.949Z,4.7
2022-10-19T13:11:57.543Z,5.5
2022-10-19T13:14:28.149Z,3.6
2022-10-19T13:16:58.851Z,4.1
2022-10-19T13:19:29.461Z,3.6
2022-10-19T13:22:10.054Z,3.3
2022-10-19T13:27:11.453Z,3.6
2022-10-19T13:29:43.096Z,5.0
2022-10-19T13:32:14.635Z,4.1
2022-10-19T13:39:55.542Z,3.6
2022-10-19T13:42:26.120Z,3.8
2022-10-19T13:44:56.731Z,4.4
2022-10-19T13:47:27.323Z,5.0
2022-10-19T13:50:07.943Z,4.7
2022-10-19T13:52:38.513Z,3.3
2022-10-19T13:55:09.090Z,4.7
2022-10-19T13:57:39.668Z,3.6
2022-10-19T14:00:10.289Z,5.2
2022-10-19T14:02:40.898Z,3.0
2022-10-19T14:05:21.543Z,5.0
2022-10-19T14:07:52.444Z,2.7
2022-10-19T14:10:25.222Z,3.3
2022-10-19T14:12:53.506Z,3.6
2022-10-19T14:17:54.992Z,2.7
2022-10-19T14:20:35.576Z,3.3
2022-10-19T14:23:06.156Z,5.0
2022-10-19T14:25:36.811Z,2.7
2022-10-19T14:28:07.416Z,2.7
2022-10-19T14:30:38.002Z,4.1
2022-10-19T14:33:12.575Z,4.1
2022-10-19T14:35:53.172Z,3.3
2022-10-19T14:38:23.799Z,1.1
2022-10-19T14:40:54.396Z,2.2
2022-10-19T14:43:25.534Z,2.2
2022-10-19T14:45:56.109Z,0.5
2022-10-19T14:48:36.716Z,1.3
2022-10-19T14:51:07.318Z,2.2
2022-10-19T14:53:37.934Z,1.1
2022-10-19T14:58:38.731Z,0.8
2022-10-19T15:01:09.499Z,0.8
2022-10-19T15:03:53.710Z,2.5
2022-10-19T15:06:24.320Z,0.8
2022-10-19T15:08:55.192Z,1.3
2022-10-19T15:11:25.820Z,2.2
2022-10-19T15:13:56.428Z,1.3
2022-10-19T15:16:27.037Z,0.5
2022-10-19T15:19:10.138Z,1.6
2022-10-19T15:21:33.455Z,3.3
2022-10-19T15:24:04.217Z,2.2
2022-10-19T15:26:37.574Z,1.9
2022-10-19T15:29:08.182Z,3.0
2022-10-19T15:31:38.762Z,1.3
2022-10-19T15:34:19.357Z,1.1
2022-10-19T15:39:48.227Z,2.2
2022-10-19T15:41:48.791Z,1.1
2022-10-19T15:44:19.384Z,0.5
2022-10-19T15:46:50.032Z,2.2
2022-10-19T15:52:00.776Z,0.2
2022-10-19T15:54:31.408Z,0.2
2022-10-19T15:57:02.087Z,0.2
2022-10-19T15:59:32.682Z,0.8
2022-10-19T16:02:16.671Z,0.2
2022-10-19T16:04:47.254Z,0.0
2022-10-19T16:09:47.961Z,0.0
2022-10-19T16:12:18.548Z,0.0
2022-10-19T16:14:52.238Z,0.0
2022-10-19T16:22:33.123Z,0.0
2022-10-19T16:25:03.735Z,0.0
2022-10-19T16:27:34.520Z,0.0
2022-10-19T16:30:05.396Z,0.0
2022-10-19T16:32:46.013Z,0.0
2022-10-19T16:35:16.601Z,0.0
2022-10-19T16:37:47.570Z,0.0
2022-10-19T16:40:18.245Z,0.0
2022-10-19T16:42:51.028Z,0.0
2022-10-19T16:45:21.612Z,0.0
2022-10-19T16:48:02.206Z,0.0
2022-10-19T16:50:32.914Z,0.0
2022-10-19T16:53:03.553Z,0.0
2022-10-19T16:55:34.167Z,0.0
2022-10-19T17:00:44.908Z,0.0
2022-10-19T17:03:15.489Z,0.0
2022-10-19T17:05:46.119Z,0.0
2022-10-19T17:08:16.700Z,0.0
2022-10-19T17:10:47.363Z,0.0
2022-10-19T17:13:17.937Z,0.0
2022-10-19T17:16:03.514Z,0.0
2022-10-19T17:18:34.193Z,0.0
2022-10-19T17:21:05.833Z,1.9
2022-10-19T17:23:36.453Z,0.8
2022-10-19T17:26:07.045Z,0.8
2022-10-19T17:28:38.014Z,0.2
2022-10-19T17:31:18.654Z,0.2
2022-10-19T17:33:49.242Z,0.2
2022-10-19T17:36:19.820Z,0.0
2022-10-19T17:41:20.577Z,0.8
2022-10-19T17:43:51.180Z,0.2
2022-10-19T17:46:31.762Z,0.5
2022-10-19T17:49:02.343Z,1.1
2022-10-19T17:51:32.913Z,1.1
2022-10-19T17:54:03.508Z,1.3
2022-10-19T17:56:34.088Z,1.6
2022-10-19T17:59:04.691Z,1.3
2022-10-19T18:01:45.303Z,2.5
2022-10-19T18:04:15.915Z,2.5
2022-10-19T18:06:46.479Z,2.7
2022-10-19T18:09:17.228Z,1.6
2022-10-19T18:11:47.805Z,2.5
2022-10-19T18:14:28.415Z,1.6
2022-10-19T18:16:58.998Z,1.3
2022-10-19T18:21:59.768Z,0.8
2022-10-19T18:24:34.654Z,1.1
2022-10-19T18:27:05.282Z,0.2
2022-10-19T18:29:45.899Z,0.2
2022-10-19T18:32:16.628Z,1.1
2022-10-19T18:37:17.381Z,0.0
2022-10-19T18:39:48.006Z,0.5
2022-10-19T18:42:18.599Z,1.1
2022-10-19T18:44:59.203Z,0.0
2022-10-19T18:47:29.789Z,0.0
2022-10-19T18:50:00.360Z,0.0
2022-10-19T18:52:30.963Z,0.0
2022-10-19T18:55:01.582Z,0.0
2022-10-19T18:57:32.150Z,0.0
2022-10-19T19:02:57.243Z,0.0
2022-10-19T19:05:17.854Z,0.0
2022-10-19T19:07:48.450Z,0.0
2022-10-19T19:10:19.053Z,0.5
2022-10-19T19:12:59.658Z,0.8
2022-10-19T19:15:30.259Z,2.2
2022-10-19T19:18:00.868Z,1.1
2022-10-19T19:20:31.459Z,1.1
2022-10-19T19:23:02.057Z,0.8
2022-10-19T19:25:32.649Z,0.8
2022-10-19T19:28:13.266Z,0.5
2022-10-19T19:30:43.862Z,0.0
2022-10-19T19:33:14.443Z,0.0
2022-10-19T19:35:45.022Z,0.2
2022-10-19T19:38:15.584Z,0.5
2022-10-19T19:43:26.366Z,0.0
2022-10-19T19:45:57.065Z,0.2
2022-10-19T19:48:27.635Z,1.1
2022-10-19T19:50:58.225Z,1.3
2022-10-19T19:53:28.851Z,1.3
2022-10-19T19:55:59.630Z,1.3
2022-10-19T19:58:40.229Z,1.1
2022-10-19T20:01:12.235Z,0.2
2022-10-19T20:03:43.339Z,0.0
2022-10-19T20:06:13.944Z,0.8
2022-10-19T20:08:44.735Z,2.5
2022-10-19T20:11:15.349Z,2.2
2022-10-19T20:13:56.145Z,2.2
2022-10-19T20:16:28.362Z,0.5
2022-10-19T20:19:00.054Z,1.6
2022-10-19T20:24:00.802Z,0.8
2022-10-19T20:26:41.405Z,0.2
2022-10-19T20:29:12.010Z,0.0
2022-10-19T20:31:42.691Z,0.5
2022-10-19T20:34:13.285Z,0.0
2022-10-19T20:36:43.866Z,0.0
2022-10-19T20:39:14.489Z,0.0
2022-10-19T20:41:55.122Z,0.2
2022-10-19T20:44:25.725Z,1.3
2022-10-19T20:46:56.295Z,0.2
2022-10-19T20:49:26.876Z,0.8
2022-10-19T20:51:57.467Z,0.0
2022-10-19T20:54:28.090Z,0.0
2022-10-19T20:57:08.670Z,0.8
2022-10-19T20:59:39.272Z,0.5
2022-10-19T21:04:39.986Z,0.5
2022-10-19T21:07:10.608Z,0.2
2022-10-19T21:09:41.182Z,0.2
2022-10-19T21:12:21.782Z,0.0
2022-10-19T21:14:52.429Z,0.0
2022-10-19T21:17:23.055Z,0.0
2022-10-19T21:19:57.054Z,0.0
2022-10-19T21:22:27.988Z,0.0
2022-10-19T21:25:08.670Z,0.0
2022-10-19T21:27:39.275Z,0.0
2022-10-19T21:30:09.883Z,0.0
2022-10-19T21:32:40.470Z,0.0
2022-10-19T21:35:11.045Z,0.2
2022-10-19T21:37:41.626Z,0.0
2022-10-19T21:40:22.261Z,0.2
2022-10-19T21:45:48.981Z,0.0
2022-10-19T21:47:49.527Z,0.0
2022-10-19T21:50:20.124Z,0.0
2022-10-19T21:52:50.710Z,0.0
2022-10-19T21:55:31.340Z,0.0
2022-10-19T21:58:01.961Z,0.8
2022-10-19T22:00:32.554Z,1.6
2022-10-19T22:03:03.226Z,2.2
2022-10-19T22:05:33.874Z,0.5
2022-10-19T22:08:04.475Z,1.3
2022-10-19T22:10:45.097Z,1.1
2022-10-19T22:13:15.677Z,2.7
2022-10-19T22:15:56.286Z,1.6
2022-10-19T22:18:26.896Z,0.8
2022-10-19T22:20:57.469Z,1.3
2022-10-19T22:26:08.219Z,1.9
2022-10-19T22:28:38.809Z,3.6
2022-10-19T22:31:09.408Z,4.1
2022-10-19T22:33:40.005Z,4.1
2022-10-19T22:36:10.582Z,3.3
2022-10-19T22:38:51.191Z,4.1
2022-10-19T22:41:21.771Z,3.8
2022-10-19T22:43:52.372Z,19.4
2022-10-19T22:46:22.964Z,5.0
2022-10-19T22:48:53.555Z,4.4
2022-10-19T22:51:24.153Z,4.1
2022-10-19T22:54:04.781Z,3.3
2022-10-19T22:56:35.365Z,2.7
2022-10-19T22:59:05.969Z,4.7
2022-10-19T23:01:36.780Z,5.5
2022-10-19T23:06:37.546Z,4.7
2022-10-19T23:09:18.258Z,5.8
2022-10-19T23:11:48.845Z,5.2
2022-10-19T23:14:19.441Z,4.4
2022-10-19T23:16:50.047Z,1.6
2022-10-19T23:19:20.681Z,3.6
2022-10-19T23:21:51.258Z,3.6
2022-10-19T23:24:31.863Z,2.5
2022-10-19T23:27:02.449Z,4.1
2022-10-19T23:29:33.057Z,4.1
2022-10-19T23:32:03.649Z,3.3
2022-10-19T23:37:15.942Z,4.4
2022-10-19T23:39:46.566Z,4.7
2022-10-19T23:42:17.152Z,6.3
2022-10-19T23:47:17.878Z,4.4
2022-10-19T23:49:48.444Z,19.4
2022-10-19T23:52:29.044Z,5.5
2022-10-19T23:54:59.646Z,6.6
2022-10-19T23:57:30.225Z,5.2
